Bei Facebook empfehlenBei Twitter postenGoogle plusPinterest

Das Wetter im Erzgebirge am 15.09.2017

Wetter und Klima am 15.09.2017 Holzhau im Erzgebirge (630m ü.NN)
Letzte gemessene Temperatur und Uhrzeit der Messung23:45:00 Uhr3.80 °C
Temperatur (Maximum / Höchstwert) und Uhrzeit der Messung14:30:00 Uhr14.30 °C
Temperatur (Minimum / Tiefstwert) und Uhrzeit der Messung23:45:003.80 °C
Errechneter Absolutwert der Temperaturschwankungen zwischen Tmin und Tmax des Tages10.50 K
Errechnete Tagesmitteltemperatur8.80313 °C
Gesamt - Niederschlag des Tages (in flüssiger Form)2.07 Liter / m²
Luftdruck (Maximum / Höchstwert) und Zeitpunkt der Messung10:15:00 Uhr1010.70 hPa
Luftdruck (Minimum / Tiefstwert) und Zeitpunkt der Messung00:45:00 Uhr1004.10 hPa
Errechneter Absolutwert der Luftdruckschwankungen des Tages6.60 hPa
Höchste gemessene Windgeschwindigkeit und Uhrzeit der Messung00:00:00 Uhr41.40 km/h
Errechnete Windhäufigkeit in Relation zu den Messwerten des Tages13.54167 %
Niedrigste Windkühle (Windchill) und Zeitpunkt der Messung23:45:00 Uhr3.80 °C
Taupunkt (Maximum / Höchstwert) und Uhrzeit der Messung12:00:00 Uhr10.20 °C
Taupunkt (Minimum / Tiefstwert) und Uhrzeit der Messung23:45:002.60 °C
Anzahl der automatisch eingelesenen Messwerte 96

Detaillierte Wetter- und Klima- Messwerte für den 15.09.2017 in Holzhau im Erzgebirge (630m ü.NN)
ZeitTemperaturLuftdruckRel. LuftfeuchteWindWindrichtungWindchillTaupunktNiederschlag l/m²
23:45:003.80 °C1009.50 hPa92.00 %2.60 °C2.07
23:30:004.00 °C1009.70 hPa92.00 %2.80 °C2.07
23:15:004.00 °C1009.70 hPa92.00 %2.80 °C2.07
23:00:003.90 °C1009.50 hPa92.00 %2.70 °C2.07
22:45:004.30 °C1009.70 hPa92.00 %3.10 °C2.07
22:30:004.40 °C1009.70 hPa92.00 %3.20 °C2.07
22:15:004.60 °C1009.70 hPa91.00 %3.30 °C2.07
22:00:004.60 °C1009.60 hPa91.00 %3.30 °C2.07
21:45:004.60 °C1009.70 hPa91.00 %3.30 °C2.07
21:30:004.70 °C1009.80 hPa90.00 %3.20 °C2.07
21:15:004.90 °C1009.70 hPa90.00 %3.40 °C2.07
21:00:005.20 °C1009.70 hPa89.00 %3.50 °C2.07
20:45:005.50 °C1009.70 hPa89.00 %3.80 °C2.07
20:30:005.70 °C1009.60 hPa89.00 %4.00 °C2.07
20:15:005.90 °C1009.70 hPa88.00 %4.10 °C2.07
20:00:006.20 °C1009.60 hPa86.00 %4.00 °C2.07
19:45:006.80 °C1009.40 hPa85.00 %4.50 °C2.07
19:30:007.60 °C1009.50 hPa84.00 %5.10 °C2.07
19:15:008.50 °C1009.60 hPa82.00 %5.60 °C2.07
19:00:009.40 °C1009.40 hPa81.00 %6.30 °C2.07
18:45:0010.10 °C1009.40 hPa79.00 %6.60 °C2.07
18:30:0010.80 °C1009.30 hPa78.00 %7.10 °C2.07
18:15:0011.10 °C1009.30 hPa78.00 %7.40 °C2.07
18:00:0011.60 °C1009.40 hPa77.00 %7.70 °C2.07
17:45:0011.90 °C1009.20 hPa77.00 %8.00 °C2.07
17:30:0012.30 °C1009.00 hPa76.00 %8.20 °C2.07
17:15:0012.80 °C1009.00 hPa75.00 %8.50 °C2.07
17:00:0012.40 °C1009.30 hPa76.00 %3.96 km/hSW12.40 °C8.30 °C2.07
16:45:0012.50 °C1009.10 hPa76.00 %8.40 °C2.07
16:30:0012.30 °C1009.40 hPa77.00 %8.40 °C2.07
16:15:0012.10 °C1009.40 hPa76.00 %8.00 °C2.07
16:00:0012.30 °C1009.60 hPa75.00 %8.00 °C2.07
15:45:0012.30 °C1009.70 hPa74.00 %7.80 °C2.07
15:30:0012.90 °C1009.80 hPa73.00 %16.92 km/hSW12.90 °C8.20 °C2.07
15:15:0012.90 °C1009.80 hPa74.00 %5.04 km/hSW12.90 °C8.40 °C2.07
15:00:0013.40 °C1009.90 hPa73.00 %2.52 km/hSSO13.40 °C8.70 °C2.07
14:45:0013.90 °C1009.90 hPa71.00 %8.70 °C2.07
14:30:0014.30 °C1009.90 hPa70.00 %21.96 km/hWSW14.40 °C8.90 °C2.07
14:15:0014.10 °C1009.80 hPa74.00 %9.50 °C2.07
14:00:0013.60 °C1010.10 hPa77.00 %9.60 °C2.07
13:45:0013.70 °C1010.10 hPa76.00 %9.60 °C2.07
13:30:0013.50 °C1010.10 hPa79.00 %9.90 °C2.07
13:15:0012.90 °C1010.10 hPa80.00 %9.50 °C2.07
13:00:0012.70 °C1010.50 hPa82.00 %9.70 °C2.07
12:45:0012.30 °C1010.60 hPa84.00 %9.70 °C2.07
12:30:0012.10 °C1010.40 hPa84.00 %9.50 °C2.07
12:15:0012.10 °C1010.50 hPa84.00 %9.50 °C2.07
12:00:0012.30 °C1010.60 hPa87.00 %10.20 °C2.07
11:45:0011.10 °C1010.60 hPa89.00 %9.40 °C2.07
11:30:0010.40 °C1010.60 hPa88.00 %8.50 °C2.07
11:15:0010.60 °C1010.50 hPa88.00 %8.70 °C2.07
11:00:0010.80 °C1010.60 hPa88.00 %8.90 °C2.07
10:45:0010.80 °C1010.60 hPa88.00 %8.90 °C2.07
10:30:0010.90 °C1010.50 hPa90.00 %9.30 °C2.07
10:15:0010.80 °C1010.70 hPa94.00 %9.90 °C2.07
10:00:009.60 °C1010.60 hPa94.00 %8.70 °C2.07
09:45:009.20 °C1010.70 hPa95.00 %8.40 °C2.07
09:30:008.90 °C1010.60 hPa95.00 %8.10 °C2.07
09:15:008.60 °C1010.60 hPa95.00 %7.80 °C2.07
09:00:008.40 °C1010.30 hPa95.00 %7.60 °C2.07
08:45:008.20 °C1010.30 hPa95.00 %7.40 °C2.07
08:30:008.10 °C1009.90 hPa95.00 %7.30 °C2.07
08:15:007.90 °C1009.60 hPa95.00 %7.10 °C2.07
08:00:007.90 °C1009.60 hPa95.00 %7.10 °C2.07
07:45:007.80 °C1009.40 hPa95.00 %7.10 °C1.55
07:30:007.80 °C1009.40 hPa95.00 %7.10 °C1.55
07:15:007.60 °C1009.20 hPa95.00 %6.90 °C1.55
07:00:007.60 °C1009.10 hPa94.00 %6.70 °C1.55
06:45:007.60 °C1008.60 hPa94.00 %6.70 °C1.55
06:30:007.60 °C1008.60 hPa94.00 %6.70 °C1.03
06:15:007.60 °C1008.40 hPa94.00 %6.70 °C1.03
06:00:007.60 °C1007.90 hPa94.00 %6.70 °C1.03
05:45:007.60 °C1007.80 hPa94.00 %6.70 °C1.03
05:30:007.60 °C1007.70 hPa94.00 %6.70 °C1.03
05:15:007.60 °C1007.40 hPa94.00 %6.70 °C1.03
05:00:007.60 °C1007.00 hPa94.00 %6.70 °C1.03
04:45:007.60 °C1007.10 hPa94.00 %15.48 km/hWNW7.60 °C6.70 °C1.03
04:30:007.60 °C1007.00 hPa94.00 %6.70 °C1.03
04:15:007.50 °C1006.70 hPa94.00 %6.60 °C1.03
04:00:007.40 °C1006.30 hPa94.00 %6.50 °C1.03
03:45:007.40 °C1006.20 hPa94.00 %6.50 °C1.03
03:30:007.30 °C1006.00 hPa94.00 %6.40 °C1.03
03:15:007.30 °C1005.70 hPa93.00 %11.52 km/hWNW7.30 °C6.20 °C1.03
03:00:007.20 °C1005.30 hPa93.00 %6.10 °C1.03
02:45:007.20 °C1005.30 hPa93.00 %6.10 °C1.03
02:30:007.10 °C1005.10 hPa93.00 %6.00 °C1.03
02:15:007.00 °C1004.90 hPa93.00 %5.90 °C1.03
02:00:006.90 °C1004.90 hPa93.00 %21.96 km/hSW5.90 °C5.80 °C1.03
01:45:006.80 °C1004.60 hPa92.00 %27.36 km/hSSW5.40 °C5.60 °C1.03
01:30:006.60 °C1004.40 hPa92.00 %14.40 km/hSW6.60 °C5.40 °C1.03
01:15:006.60 °C1004.20 hPa92.00 %5.40 °C0.52
01:00:006.60 °C1004.20 hPa91.00 %24.48 km/hWNW5.30 °C5.20 °C0.52
00:45:006.60 °C1004.10 hPa90.00 %6.48 km/hWNW6.60 °C5.10 °C0.52
00:30:006.80 °C1004.10 hPa90.00 %5.30 °C 
00:15:006.90 °C1004.20 hPa89.00 %5.20 °C 
00:00:007.10 °C1004.20 hPa88.00 %41.40 km/hSW4.90 °C5.30 °C 

Permanenter Link zu dieser Seite: Wetter im Erzgebirge am 15.09.2017
Performance-Info: Die Erstellung der Seite / Statistik(en) / Tabelle(n) erforderte 5 Datenbankserver-Abfrage(n) und dauerte 122 Millisekunden. (Dieser Messwert ist von der Gesamt-Auslastung des Servers abhängig.)
Erzgebirge - Wetter | Erzgebirge - Wetter (Mobilgeräte) | Komplette Klimadatenbank